createdAt,value
2018-05-26T00:02:49.385Z,70.09
2018-05-26T00:05:52.706Z,70.09
2018-05-26T00:08:56.793Z,70.19
2018-05-26T00:12:00.122Z,70.20
2018-05-26T00:15:04.198Z,70.49
2018-05-26T00:18:07.518Z,70.52
2018-05-26T00:21:10.849Z,70.62
2018-05-26T00:24:14.165Z,70.95
2018-05-26T00:27:17.467Z,71.14
2018-05-26T00:30:20.773Z,71.33
2018-05-26T00:33:24.096Z,71.50
2018-05-26T00:36:27.409Z,71.88
2018-05-26T00:39:31.502Z,72.13
2018-05-26T00:42:34.833Z,72.56
2018-05-26T00:45:38.901Z,72.77
2018-05-26T00:48:42.216Z,72.73
2018-05-26T00:51:45.530Z,72.63
2018-05-26T00:54:49.618Z,72.56
2018-05-26T00:57:52.929Z,72.36
2018-05-26T01:00:56.265Z,72.38
2018-05-26T01:03:59.604Z,72.56
2018-05-26T01:07:02.914Z,72.75
2018-05-26T01:10:06.233Z,72.92
2018-05-26T01:13:09.553Z,73.07
2018-05-26T01:16:12.878Z,73.21
2018-05-26T01:19:16.176Z,73.52
2018-05-26T01:22:19.493Z,73.75
2018-05-26T01:25:22.810Z,74.10
2018-05-26T01:28:26.894Z,74.42
2018-05-26T01:31:30.197Z,74.62
2018-05-26T01:34:33.518Z,74.80
2018-05-26T01:37:37.585Z,75.04
2018-05-26T01:40:40.906Z,75.23
2018-05-26T01:43:44.209Z,75.37
2018-05-26T01:46:47.541Z,75.15
2018-05-26T01:49:50.845Z,75.48
2018-05-26T01:52:54.178Z,75.83
2018-05-26T01:55:57.489Z,75.98
2018-05-26T01:59:00.823Z,76.13
2018-05-26T02:02:04.126Z,76.40
2018-05-26T02:05:07.458Z,76.64
2018-05-26T02:08:10.762Z,76.83
2018-05-26T02:11:14.078Z,77.34
2018-05-26T02:14:17.393Z,78.12
2018-05-26T02:17:20.743Z,78.09
2018-05-26T02:20:24.058Z,78.25
2018-05-26T02:23:27.401Z,78.32
2018-05-26T02:26:30.709Z,78.44
2018-05-26T02:29:34.054Z,78.28
2018-05-26T02:32:37.363Z,78.19
2018-05-26T02:35:40.707Z,78.72
2018-05-26T02:38:44.018Z,79.06
2018-05-26T02:41:47.340Z,79.18
2018-05-26T02:44:50.653Z,79.49
2018-05-26T02:47:53.993Z,79.66
2018-05-26T02:50:57.301Z,79.85
2018-05-26T02:54:00.625Z,80.06
2018-05-26T02:57:03.941Z,80.12
2018-05-26T03:00:07.265Z,80.26
2018-05-26T03:03:10.610Z,80.75
2018-05-26T03:06:19.419Z,80.94
2018-05-26T03:09:28.188Z,81.05
2018-05-26T03:12:37.865Z,80.97
2018-05-26T03:15:41.177Z,81.06
2018-05-26T03:18:44.493Z,81.10
2018-05-26T03:21:47.800Z,81.52
2018-05-26T03:24:51.148Z,81.82
2018-05-26T03:27:54.453Z,81.89
2018-05-26T03:30:57.793Z,81.74
2018-05-26T03:34:01.097Z,81.76
2018-05-26T03:37:04.418Z,81.89
2018-05-26T03:40:08.498Z,81.89
2018-05-26T03:43:11.817Z,82.50
2018-05-26T03:46:15.881Z,83.19
2018-05-26T03:49:19.193Z,82.73
2018-05-26T03:52:22.500Z,82.75
2018-05-26T03:55:44.501Z,82.69
2018-05-26T03:59:05.582Z,82.52
2018-05-26T04:02:09.667Z,82.50
2018-05-26T04:05:12.964Z,83.07
2018-05-26T04:08:16.301Z,83.20
2018-05-26T04:11:20.433Z,83.28
2018-05-26T04:14:23.746Z,83.37
2018-05-26T04:17:27.053Z,83.43
2018-05-26T04:20:30.373Z,83.60
2018-05-26T04:23:33.677Z,83.65
2018-05-26T04:26:36.995Z,83.70
2018-05-26T04:29:40.302Z,83.67
2018-05-26T04:32:43.630Z,84.00
2018-05-26T04:35:46.933Z,84.09
2018-05-26T04:38:50.344Z,84.06
2018-05-26T04:41:53.654Z,84.20
2018-05-26T04:44:56.977Z,84.55
2018-05-26T04:48:00.286Z,84.52
2018-05-26T04:51:03.728Z,84.47
2018-05-26T04:54:07.045Z,84.34
2018-05-26T04:57:10.358Z,84.66
2018-05-26T05:00:14.430Z,84.84
2018-05-26T05:03:17.749Z,84.88
2018-05-26T05:06:21.070Z,84.67
2018-05-26T05:09:25.142Z,84.54
2018-05-26T05:12:28.465Z,84.25
2018-05-26T05:15:31.782Z,84.20
2018-05-26T05:18:35.097Z,83.57
2018-05-26T05:21:38.402Z,83.52
2018-05-26T05:24:41.718Z,83.33
2018-05-26T05:27:45.030Z,83.25
2018-05-26T05:30:48.349Z,82.57
2018-05-26T05:33:51.653Z,82.65
2018-05-26T05:36:55.741Z,82.64
2018-05-26T05:39:59.057Z,82.12
2018-05-26T05:43:03.141Z,82.26
2018-05-26T05:46:06.465Z,82.00
2018-05-26T05:49:10.532Z,81.85
2018-05-26T05:52:13.848Z,80.70
2018-05-26T05:55:17.202Z,80.46
2018-05-26T05:58:20.504Z,80.30
2018-05-26T06:01:23.813Z,79.64
2018-05-26T06:04:27.130Z,79.82
2018-05-26T06:07:30.450Z,80.01
2018-05-26T06:10:33.760Z,78.96
2018-05-26T06:13:37.847Z,77.78
2018-05-26T06:16:41.158Z,77.45
2018-05-26T06:19:44.483Z,77.29
2018-05-26T06:22:47.825Z,76.72
2018-05-26T06:25:51.134Z,76.94
2018-05-26T06:28:54.453Z,76.70
2018-05-26T06:31:58.541Z,76.48
2018-05-26T06:35:01.841Z,76.14
2018-05-26T06:38:05.174Z,75.86
2018-05-26T06:41:09.262Z,75.12
2018-05-26T06:44:12.575Z,74.81
2018-05-26T06:47:16.675Z,73.32
2018-05-26T06:50:19.989Z,73.04
2018-05-26T06:53:23.325Z,72.76
2018-05-26T06:56:26.644Z,71.79
2018-05-26T06:59:29.958Z,70.87
2018-05-26T07:02:33.282Z,70.50
2018-05-26T07:05:36.608Z,69.85
2018-05-26T07:08:39.937Z,68.59
2018-05-26T07:11:43.257Z,69.27
2018-05-26T07:14:47.339Z,68.70
2018-05-26T07:17:50.674Z,67.11
2018-05-26T07:20:53.982Z,66.61
2018-05-26T07:23:57.310Z,66.58
2018-05-26T07:27:00.614Z,66.05
2018-05-26T07:30:03.929Z,65.40
2018-05-26T07:33:07.240Z,65.22
2018-05-26T07:36:10.569Z,64.92
2018-05-26T07:39:13.886Z,64.43
2018-05-26T07:42:17.197Z,63.12
2018-05-26T07:45:20.509Z,63.02
2018-05-26T07:48:23.838Z,62.29
2018-05-26T07:51:27.914Z,60.96
2018-05-26T07:54:31.233Z,61.13
2018-05-26T07:57:34.560Z,61.03
2018-05-26T08:00:37.885Z,60.31
2018-05-26T08:03:41.185Z,59.37
2018-05-26T08:06:44.508Z,59.63
2018-05-26T08:09:47.822Z,58.91
2018-05-26T08:12:51.143Z,57.85
2018-05-26T08:15:54.452Z,57.57
2018-05-26T08:18:57.779Z,57.55
2018-05-26T08:22:01.101Z,57.11
2018-05-26T08:25:04.422Z,56.63
2018-05-26T08:28:07.859Z,56.61
2018-05-26T08:31:11.170Z,57.14
2018-05-26T08:34:14.495Z,56.75
2018-05-26T08:37:17.806Z,56.55
2018-05-26T08:40:21.890Z,56.21
2018-05-26T08:43:25.198Z,54.88
2018-05-26T08:46:28.500Z,55.87
2018-05-26T08:49:31.801Z,53.98
2018-05-26T08:52:35.109Z,54.47
2018-05-26T08:55:39.178Z,53.51
2018-05-26T08:58:42.497Z,54.37
2018-05-26T09:01:45.807Z,54.07
2018-05-26T09:04:49.130Z,52.90
2018-05-26T09:07:52.442Z,52.51
2018-05-26T09:10:55.751Z,52.55
2018-05-26T09:13:59.082Z,52.57
2018-05-26T09:17:02.383Z,53.12
2018-05-26T09:20:05.702Z,52.67
2018-05-26T09:23:09.028Z,53.19
2018-05-26T09:26:12.372Z,53.29
2018-05-26T09:29:15.696Z,53.81
2018-05-26T09:32:19.029Z,53.24
2018-05-26T09:35:22.337Z,52.66
2018-05-26T09:38:25.654Z,52.89
2018-05-26T09:41:28.958Z,53.19
2018-05-26T09:44:32.298Z,51.74
2018-05-26T09:47:35.614Z,52.00
2018-05-26T09:50:38.947Z,52.60
2018-05-26T09:53:42.266Z,49.77
2018-05-26T09:56:46.364Z,50.31
2018-05-26T09:59:49.675Z,50.69
2018-05-26T10:02:53.761Z,51.61
2018-05-26T10:05:57.094Z,50.12
2018-05-26T10:09:00.413Z,50.00
2018-05-26T10:12:03.717Z,50.14
2018-05-26T10:15:07.035Z,50.12
2018-05-26T10:18:10.347Z,49.12
2018-05-26T10:21:13.670Z,47.87
2018-05-26T10:24:16.978Z,48.42
2018-05-26T10:27:20.297Z,48.12
2018-05-26T10:30:23.605Z,49.18
2018-05-26T10:33:26.963Z,48.77
2018-05-26T10:36:30.270Z,48.96
2018-05-26T10:39:33.595Z,49.12
2018-05-26T10:42:36.930Z,48.77
2018-05-26T10:45:40.237Z,49.13
2018-05-26T10:48:44.330Z,48.76
2018-05-26T10:51:47.633Z,47.79
2018-05-26T10:54:50.940Z,47.48
2018-05-26T10:57:54.245Z,48.18
2018-05-26T11:00:58.326Z,47.99
2018-05-26T11:04:01.663Z,46.79
2018-05-26T11:07:04.968Z,47.19
2018-05-26T11:10:08.319Z,46.88
2018-05-26T11:13:11.625Z,46.38
2018-05-26T11:16:15.045Z,46.58
2018-05-26T11:19:18.279Z,46.61
2018-05-26T11:22:21.586Z,45.97
2018-05-26T11:25:24.907Z,46.04
2018-05-26T11:28:28.237Z,44.80
2018-05-26T11:31:31.578Z,45.16
2018-05-26T11:34:34.970Z,45.86
2018-05-26T11:37:38.294Z,45.81
2018-05-26T11:40:41.635Z,46.04
2018-05-26T11:43:44.945Z,45.71
2018-05-26T11:46:48.269Z,44.38
2018-05-26T11:49:51.616Z,44.52
2018-05-26T11:52:54.931Z,43.62
2018-05-26T11:55:58.267Z,44.63
2018-05-26T11:59:01.578Z,45.01
2018-05-26T12:02:04.925Z,43.40
2018-05-26T12:05:08.219Z,43.46
2018-05-26T12:08:11.558Z,42.52
2018-05-26T12:11:14.889Z,42.10
2018-05-26T12:14:18.216Z,41.44
2018-05-26T12:17:21.542Z,42.16
2018-05-26T12:20:24.867Z,41.99
2018-05-26T12:23:28.952Z,42.02
2018-05-26T12:26:32.290Z,41.84
2018-05-26T12:29:35.610Z,41.28
2018-05-26T12:32:38.930Z,41.56
2018-05-26T12:35:42.229Z,42.02
2018-05-26T12:38:45.549Z,41.77
2018-05-26T12:41:48.870Z,42.11
2018-05-26T12:44:52.952Z,40.90
2018-05-26T12:47:56.269Z,41.66
2018-05-26T12:51:00.365Z,41.67
2018-05-26T12:54:03.695Z,40.70
2018-05-26T12:57:07.108Z,39.55
2018-05-26T13:00:10.433Z,40.96
2018-05-26T13:03:13.757Z,39.19
2018-05-26T13:06:17.073Z,40.53
2018-05-26T13:09:21.170Z,40.56
2018-05-26T13:12:24.472Z,39.76
2018-05-26T13:15:27.805Z,40.05
2018-05-26T13:18:31.104Z,39.24
2018-05-26T13:21:34.438Z,38.99
2018-05-26T13:24:37.754Z,38.38
2018-05-26T13:27:41.065Z,39.94
2018-05-26T13:30:45.137Z,38.84
2018-05-26T13:33:48.469Z,38.55
2018-05-26T13:36:51.783Z,38.92
2018-05-26T13:39:55.114Z,38.99
2018-05-26T13:42:58.435Z,38.34
2018-05-26T13:46:01.764Z,38.72
2018-05-26T13:49:05.090Z,40.09
2018-05-26T13:52:08.451Z,39.58
2018-05-26T13:55:11.782Z,39.02
2018-05-26T13:58:15.865Z,39.87
2018-05-26T14:01:19.165Z,39.92
2018-05-26T14:04:23.281Z,40.53
2018-05-26T14:07:27.359Z,39.92
2018-05-26T14:10:30.712Z,39.27
2018-05-26T14:13:34.024Z,40.13
2018-05-26T14:16:37.407Z,39.41
2018-05-26T14:19:40.694Z,38.35
2018-05-26T14:22:44.037Z,38.20
2018-05-26T14:25:47.353Z,37.70
2018-05-26T14:28:50.677Z,38.40
2018-05-26T14:31:54.001Z,38.29
2018-05-26T14:34:57.340Z,38.33
2018-05-26T14:38:00.664Z,37.56
2018-05-26T14:41:04.757Z,38.10
2018-05-26T14:44:08.108Z,37.27
2018-05-26T14:47:11.417Z,37.42
2018-05-26T14:50:14.735Z,37.25
2018-05-26T14:53:18.054Z,37.03
2018-05-26T14:56:21.393Z,36.69
2018-05-26T14:59:24.706Z,36.80
2018-05-26T15:02:28.014Z,35.96
2018-05-26T15:05:31.309Z,34.21
2018-05-26T15:08:34.642Z,33.60
2018-05-26T15:11:37.955Z,34.14
2018-05-26T15:14:42.038Z,34.20
2018-05-26T15:17:45.342Z,34.40
2018-05-26T15:20:48.652Z,34.20
2018-05-26T15:23:52.749Z,34.43
2018-05-26T15:26:56.040Z,34.07
2018-05-26T15:29:59.361Z,34.50
2018-05-26T15:33:03.441Z,34.43
2018-05-26T15:36:06.762Z,34.37
2018-05-26T15:39:10.070Z,34.00
2018-05-26T15:42:14.146Z,34.69
2018-05-26T15:45:17.473Z,35.06
2018-05-26T15:48:20.782Z,34.92
2018-05-26T15:51:24.899Z,34.61
2018-05-26T15:54:28.207Z,33.69
2018-05-26T15:57:31.527Z,33.79
2018-05-26T16:00:34.881Z,34.52
2018-05-26T16:03:38.186Z,35.08
2018-05-26T16:06:42.276Z,35.41
2018-05-26T16:09:45.582Z,36.55
2018-05-26T16:12:49.656Z,37.61
2018-05-26T16:15:52.974Z,38.25
2018-05-26T16:18:56.288Z,39.27
2018-05-26T16:21:59.619Z,40.41
2018-05-26T16:25:02.930Z,40.68
2018-05-26T16:28:06.271Z,41.70
2018-05-26T16:31:09.578Z,42.46
2018-05-26T16:34:12.913Z,42.50
2018-05-26T16:37:16.221Z,43.05
2018-05-26T16:40:19.543Z,43.93
2018-05-26T16:43:22.845Z,44.09
2018-05-26T16:46:26.170Z,44.95
2018-05-26T16:49:29.471Z,44.81
2018-05-26T16:52:33.549Z,45.26
2018-05-26T16:55:36.866Z,45.41
2018-05-26T16:58:40.178Z,46.00
2018-05-26T17:01:44.269Z,46.19
2018-05-26T17:04:47.590Z,46.72
2018-05-26T17:07:50.910Z,47.09
2018-05-26T17:10:54.226Z,47.24
2018-05-26T17:13:57.537Z,47.06
2018-05-26T17:17:00.857Z,46.48
2018-05-26T17:20:04.174Z,46.57
2018-05-26T17:23:07.506Z,46.60
2018-05-26T17:26:10.809Z,47.06
2018-05-26T17:29:14.131Z,46.67
2018-05-26T17:32:17.433Z,46.56
2018-05-26T17:35:20.748Z,46.79
2018-05-26T17:38:24.818Z,46.98
2018-05-26T17:41:28.142Z,46.96
2018-05-26T17:44:31.450Z,47.07
2018-05-26T17:47:35.535Z,47.32
2018-05-26T17:50:38.850Z,47.85
2018-05-26T17:53:42.171Z,48.09
2018-05-26T17:56:46.251Z,48.33
2018-05-26T17:59:49.583Z,47.75
2018-05-26T18:02:53.652Z,47.49
2018-05-26T18:05:56.981Z,48.25
2018-05-26T18:09:00.328Z,48.53
2018-05-26T18:12:03.652Z,49.18
2018-05-26T18:15:07.016Z,49.39
2018-05-26T18:18:10.362Z,49.48
2018-05-26T18:21:13.679Z,49.78
2018-05-26T18:24:17.803Z,50.30
2018-05-26T18:27:21.101Z,50.80
2018-05-26T18:30:24.429Z,51.00
2018-05-26T18:33:27.759Z,51.37
2018-05-26T18:36:31.065Z,51.45
2018-05-26T18:39:34.389Z,51.83
2018-05-26T18:42:37.705Z,51.92
2018-05-26T18:45:41.806Z,52.20
2018-05-26T18:48:45.163Z,52.40
2018-05-26T18:51:48.449Z,53.06
2018-05-26T18:54:51.758Z,53.22
2018-05-26T18:57:55.080Z,53.54
2018-05-26T19:00:59.157Z,53.79
2018-05-26T19:04:02.561Z,54.25
2018-05-26T19:07:05.871Z,54.60
2018-05-26T19:10:09.950Z,54.89
2018-05-26T19:13:13.257Z,55.24
2018-05-26T19:16:16.573Z,55.40
2018-05-26T19:19:20.670Z,55.59
2018-05-26T19:22:23.979Z,55.94
2018-05-26T19:25:27.296Z,56.40
2018-05-26T19:28:31.379Z,56.74
2018-05-26T19:31:34.701Z,56.99
2018-05-26T19:34:38.805Z,57.26
2018-05-26T19:37:42.100Z,57.61
2018-05-26T19:40:45.450Z,57.95
2018-05-26T19:43:48.763Z,58.40
2018-05-26T19:46:52.078Z,58.76
2018-05-26T19:49:55.401Z,59.03
2018-05-26T19:52:59.485Z,59.23
2018-05-26T19:56:02.805Z,59.55
2018-05-26T19:59:06.877Z,59.81
2018-05-26T20:02:10.202Z,60.09
2018-05-26T20:05:13.510Z,60.27
2018-05-26T20:08:16.821Z,60.37
2018-05-26T20:11:20.129Z,60.46
2018-05-26T20:14:23.425Z,60.93
2018-05-26T20:17:26.733Z,61.01
2018-05-26T20:20:30.047Z,61.40
2018-05-26T20:23:33.374Z,61.49
2018-05-26T20:26:36.678Z,61.66
2018-05-26T20:29:39.989Z,61.76
2018-05-26T20:32:44.070Z,61.86
2018-05-26T20:35:47.385Z,62.01
2018-05-26T20:38:50.702Z,62.31
2018-05-26T20:41:54.920Z,62.51
2018-05-26T20:44:58.997Z,62.85
2018-05-26T20:48:02.305Z,63.19
2018-05-26T20:51:05.623Z,63.44
2018-05-26T20:54:09.715Z,64.01
2018-05-26T20:57:13.023Z,64.19
2018-05-26T21:00:16.342Z,64.48
2018-05-26T21:03:20.429Z,64.54
2018-05-26T21:06:23.729Z,64.62
2018-05-26T21:09:27.065Z,64.67
2018-05-26T21:12:30.366Z,64.72
2018-05-26T21:15:33.672Z,64.91
2018-05-26T21:18:36.970Z,65.22
2018-05-26T21:21:41.084Z,65.22
2018-05-26T21:24:44.390Z,65.26
2018-05-26T21:27:47.747Z,65.29
2018-05-26T21:30:51.808Z,65.36
2018-05-26T21:33:55.125Z,65.39
2018-05-26T21:36:58.430Z,65.59
2018-05-26T21:40:01.758Z,65.91
2018-05-26T21:43:05.070Z,66.22
2018-05-26T21:46:08.393Z,66.47
2018-05-26T21:49:11.722Z,66.79
2018-05-26T21:52:15.806Z,67.07
2018-05-26T21:55:19.125Z,67.07
2018-05-26T21:58:22.453Z,67.09
2018-05-26T22:01:25.752Z,67.25
2018-05-26T22:04:29.072Z,67.58
2018-05-26T22:07:32.386Z,68.01
2018-05-26T22:10:35.722Z,68.33
2018-05-26T22:13:39.815Z,68.70
2018-05-26T22:16:43.145Z,68.91
2018-05-26T22:19:46.486Z,69.30
2018-05-26T22:22:49.790Z,69.58
2018-05-26T22:25:53.120Z,69.96
2018-05-26T22:28:57.199Z,70.08
2018-05-26T22:32:00.518Z,70.21
2018-05-26T22:35:03.827Z,70.52
2018-05-26T22:38:07.905Z,70.84
2018-05-26T22:41:11.206Z,71.07
2018-05-26T22:44:14.550Z,71.58
2018-05-26T22:47:18.623Z,71.75
2018-05-26T22:50:21.942Z,71.98
2018-05-26T22:53:25.245Z,72.21
2018-05-26T22:56:29.346Z,72.39
2018-05-26T22:59:32.657Z,72.46
2018-05-26T23:02:36.738Z,72.44
2018-05-26T23:05:40.086Z,72.42
2018-05-26T23:08:43.402Z,72.42
2018-05-26T23:11:46.713Z,72.75
2018-05-26T23:14:50.019Z,72.94
2018-05-26T23:17:53.341Z,73.08
2018-05-26T23:20:56.654Z,73.33
2018-05-26T23:23:59.971Z,73.62
2018-05-26T23:27:03.294Z,74.28
2018-05-26T23:30:06.602Z,74.49
2018-05-26T23:33:09.961Z,74.59
2018-05-26T23:36:13.278Z,74.99
2018-05-26T23:39:16.597Z,75.07
2018-05-26T23:42:19.909Z,75.39
2018-05-26T23:45:23.225Z,75.93
2018-05-26T23:48:26.538Z,76.17
2018-05-26T23:51:29.881Z,76.77
2018-05-26T23:54:33.187Z,77.05
2018-05-26T23:57:36.502Z,77.28
